METAR Data
IDs: Format: Raw Decoded Include TAF

Data at: 1000 UTC 28 Sep 2021

ETAD 280956Z 01004KT 9999 SCT011 SCT200 13/10 A3025 RMK AO2A SLP235 T01320098 $